Etusivu
METAR-TAF:

METAR-TAF

Lentoasemat :

Lagos, Nigeria

Murtala Muhammedin kansainvälinen lentoasema

Leveyspiiri: 06-35N, Pituuspiiri: 003-20E, korkeus merenpinnasta: 40 m

Tämänhetkinen sää

Tämä raportti tehtiin 1 tunti ja 26 minuuttia sitten, kello 20.00 UTC
Tuuli 8 kn lännestä/lounaasta
Lämpötila 25°C
Kosteus 89%
Ilmanpaine 1012 hPa
Näkyvyys: 8000 m
Hajonneita pilviä 900 ft:n korkeudessa

METAR: DNMM 172000Z 24008KT 8000 BKN009 25/23 Q1012 NOSIG

Aika: 22:26 (21:26 UTC)

Sääennuste

Tämä raportti tehtiin 5 tuntia ja 56 minuuttia sitten, kello 15.30 UTC
Ennuste voimassa 17. päivästä klo 18 UTC - 18. päivään klo 24 UTC
Tuuli 7 kn lännestä
Näkyvyys: 8000 m
Hajanaisia pilviä 800 ft:n korkeudessa
Todennäköisyys 30% :
Ajoittain
18. päivästä klo 01 UTC - 18. päivään klo 03 UTC
Tuuli 2 kn eri suunnista
Näkyvyys: 5000 m
Hajonneita pilviä 700 ft:n korkeudessa
sadetta

TAF: DNMM 171530Z 1718/1824 26007KT 8000 SCT008 PROB30 TEMPO 1801/1803 VRB02KT 5000 RA BKN007

Säähavainnot ja -ennusteet yli 4000 lentoasemalta (METAR- ja TAF-raportit).

Käytössä olevat sääasemat on merkitty karttaan keltaisilla ja punaisilla pisteillä.

Aseta hiiri pisteen päälle nähdäksesi sääaseman nimen.

Klikkaa sitten nähdäksesi säähavainnot ja -ennusteet.

Kartan vaihtaminen: klikkaa mustalla rastilla varustettuja vihreitä pisteitä, niin voit zoomata sisään; viivalla varustettua vihreää pistettä, niin voit zoomata ulos tai vihreitä nuolia, niin pääset viereisille kartoille.


METAR-TAF: